sensor_id;sensor_type;location;lat;lon;timestamp;pressure;altitude;pressure_sealevel;temperature;humidity
84835;BME280;75078;42.636;23.198;2024-03-08T00:02:22;92095.81;;;2.90;88.90
84835;BME280;75078;42.636;23.198;2024-03-08T00:04:48;92079.22;;;2.92;88.33
84835;BME280;75078;42.636;23.198;2024-03-08T00:07:13;92086.41;;;2.90;88.24
84835;BME280;75078;42.636;23.198;2024-03-08T00:09:38;92086.41;;;2.90;88.54
84835;BME280;75078;42.636;23.198;2024-03-08T00:12:04;92082.50;;;2.84;87.79
84835;BME280;75078;42.636;23.198;2024-03-08T00:14:29;92092.22;;;2.82;88.02
84835;BME280;75078;42.636;23.198;2024-03-08T00:16:54;92078.31;;;2.88;88.20
84835;BME280;75078;42.636;23.198;2024-03-08T00:19:20;92081.31;;;2.90;88.02
84835;BME280;75078;42.636;23.198;2024-03-08T00:21:45;92086.72;;;2.98;87.23
84835;BME280;75078;42.636;23.198;2024-03-08T00:24:10;92089.69;;;2.82;87.77
84835;BME280;75078;42.636;23.198;2024-03-08T00:26:37;92084.75;;;2.77;88.72
84835;BME280;75078;42.636;23.198;2024-03-08T00:29:02;92077.44;;;2.84;88.03
84835;BME280;75078;42.636;23.198;2024-03-08T00:31:28;92084.00;;;2.85;88.05
84835;BME280;75078;42.636;23.198;2024-03-08T00:33:56;92086.84;;;2.75;88.37
84835;BME280;75078;42.636;23.198;2024-03-08T00:36:22;92076.22;;;2.73;88.01
84835;BME280;75078;42.636;23.198;2024-03-08T00:38:47;92083.53;;;2.66;89.31
84835;BME280;75078;42.636;23.198;2024-03-08T00:41:12;92074.25;;;2.79;88.81
84835;BME280;75078;42.636;23.198;2024-03-08T00:43:38;92073.69;;;2.82;87.87
84835;BME280;75078;42.636;23.198;2024-03-08T00:46:03;92072.16;;;2.72;88.25
84835;BME280;75078;42.636;23.198;2024-03-08T00:48:28;92074.69;;;2.72;88.23
84835;BME280;75078;42.636;23.198;2024-03-08T00:50:58;92073.50;;;2.78;88.37
84835;BME280;75078;42.636;23.198;2024-03-08T00:53:23;92063.34;;;2.78;88.16
84835;BME280;75078;42.636;23.198;2024-03-08T00:55:49;92063.50;;;2.82;87.41
84835;BME280;75078;42.636;23.198;2024-03-08T00:58:14;92059.78;;;2.79;87.62
84835;BME280;75078;42.636;23.198;2024-03-08T01:00:39;92055.59;;;2.83;88.11
84835;BME280;75078;42.636;23.198;2024-03-08T01:03:05;92058.13;;;2.83;87.89
84835;BME280;75078;42.636;23.198;2024-03-08T01:05:33;92060.38;;;2.94;86.86
84835;BME280;75078;42.636;23.198;2024-03-08T01:08:18;92056.34;;;2.92;87.09
84835;BME280;75078;42.636;23.198;2024-03-08T01:10:43;92054.38;;;2.89;86.22
84835;BME280;75078;42.636;23.198;2024-03-08T01:13:08;92048.56;;;2.98;87.36
84835;BME280;75078;42.636;23.198;2024-03-08T01:15:34;92049.59;;;2.97;87.16
84835;BME280;75078;42.636;23.198;2024-03-08T01:18:00;92045.72;;;2.90;86.66
84835;BME280;75078;42.636;23.198;2024-03-08T01:20:26;92048.41;;;2.85;86.85
84835;BME280;75078;42.636;23.198;2024-03-08T01:22:52;92047.97;;;2.83;86.65
84835;BME280;75078;42.636;23.198;2024-03-08T01:25:17;92053.19;;;2.78;87.35
84835;BME280;75078;42.636;23.198;2024-03-08T01:27:42;92050.19;;;2.76;87.17
84835;BME280;75078;42.636;23.198;2024-03-08T01:30:08;92043.63;;;2.75;87.40
84835;BME280;75078;42.636;23.198;2024-03-08T01:32:34;92047.38;;;2.78;87.59
84835;BME280;75078;42.636;23.198;2024-03-08T01:35:00;92037.19;;;2.78;87.03
84835;BME280;75078;42.636;23.198;2024-03-08T01:37:25;92036.59;;;2.72;88.13
84835;BME280;75078;42.636;23.198;2024-03-08T01:39:50;92032.97;;;2.65;88.15
84835;BME280;75078;42.636;23.198;2024-03-08T01:42:16;92041.50;;;2.60;87.50
84835;BME280;75078;42.636;23.198;2024-03-08T01:44:43;92030.75;;;2.63;88.27
84835;BME280;75078;42.636;23.198;2024-03-08T01:47:09;92031.31;;;2.60;88.58
84835;BME280;75078;42.636;23.198;2024-03-08T01:49:36;92034.94;;;2.59;88.30
84835;BME280;75078;42.636;23.198;2024-03-08T01:52:02;92035.22;;;2.58;88.32
84835;BME280;75078;42.636;23.198;2024-03-08T01:54:29;92041.19;;;2.53;88.57
84835;BME280;75078;42.636;23.198;2024-03-08T01:56:56;92039.38;;;2.45;88.44
84835;BME280;75078;42.636;23.198;2024-03-08T01:59:24;92035.19;;;2.49;88.39
84835;BME280;75078;42.636;23.198;2024-03-08T02:01:50;92038.19;;;2.51;87.65
84835;BME280;75078;42.636;23.198;2024-03-08T02:04:16;92029.97;;;2.54;87.82
84835;BME280;75078;42.636;23.198;2024-03-08T02:06:41;92023.69;;;2.52;87.82
84835;BME280;75078;42.636;23.198;2024-03-08T02:09:07;92023.56;;;2.65;87.34
84835;BME280;75078;42.636;23.198;2024-03-08T02:11:34;92021.78;;;2.57;87.26
84835;BME280;75078;42.636;23.198;2024-03-08T02:13:59;92027.88;;;2.56;87.46
84835;BME280;75078;42.636;23.198;2024-03-08T02:16:25;92023.69;;;2.60;87.87
84835;BME280;75078;42.636;23.198;2024-03-08T02:18:50;92029.22;;;2.54;87.69
84835;BME280;75078;42.636;23.198;2024-03-08T02:21:17;92032.53;;;2.54;88.09
84835;BME280;75078;42.636;23.198;2024-03-08T02:23:46;92024.31;;;2.66;87.75
84835;BME280;75078;42.636;23.198;2024-03-08T02:26:11;92026.53;;;2.50;87.78
84835;BME280;75078;42.636;23.198;2024-03-08T02:28:37;92037.91;;;2.44;87.90
84835;BME280;75078;42.636;23.198;2024-03-08T02:31:03;92037.28;;;2.47;88.35
84835;BME280;75078;42.636;23.198;2024-03-08T02:33:33;92033.97;;;2.38;88.71
84835;BME280;75078;42.636;23.198;2024-03-08T02:35:58;92022.03;;;2.39;88.16
84835;BME280;75078;42.636;23.198;2024-03-08T02:38:24;92026.34;;;2.38;89.57
84835;BME280;75078;42.636;23.198;2024-03-08T02:40:50;92031.56;;;2.33;88.57
84835;BME280;75078;42.636;23.198;2024-03-08T02:43:17;92027.69;;;2.27;89.03
84835;BME280;75078;42.636;23.198;2024-03-08T02:45:43;92030.84;;;2.33;89.68
84835;BME280;75078;42.636;23.198;2024-03-08T02:48:09;92031.09;;;2.23;89.65
84835;BME280;75078;42.636;23.198;2024-03-08T02:50:36;92030.94;;;2.19;90.16
84835;BME280;75078;42.636;23.198;2024-03-08T02:53:01;92031.28;;;2.26;89.66
84835;BME280;75078;42.636;23.198;2024-03-08T02:55:27;92035.91;;;2.33;89.19
84835;BME280;75078;42.636;23.198;2024-03-08T02:57:52;92041.59;;;2.38;89.42
84835;BME280;75078;42.636;23.198;2024-03-08T03:00:20;92036.53;;;2.47;89.14
84835;BME280;75078;42.636;23.198;2024-03-08T03:02:46;92030.53;;;2.34;89.04
84835;BME280;75078;42.636;23.198;2024-03-08T03:05:11;92044.13;;;2.38;88.92
84835;BME280;75078;42.636;23.198;2024-03-08T03:07:37;92034.59;;;2.35;88.94
84835;BME280;75078;42.636;23.198;2024-03-08T03:10:04;92046.81;;;2.33;89.38
84835;BME280;75078;42.636;23.198;2024-03-08T03:12:30;92044.31;;;2.42;88.97
84835;BME280;75078;42.636;23.198;2024-03-08T03:14:56;92044.75;;;2.35;89.14
84835;BME280;75078;42.636;23.198;2024-03-08T03:17:24;92043.38;;;2.38;87.89
84835;BME280;75078;42.636;23.198;2024-03-08T03:19:50;92047.91;;;2.49;88.05
84835;BME280;75078;42.636;23.198;2024-03-08T03:22:16;92047.13;;;2.40;87.66
84835;BME280;75078;42.636;23.198;2024-03-08T03:24:42;92047.56;;;2.42;88.44
84835;BME280;75078;42.636;23.198;2024-03-08T03:27:07;92052.81;;;2.37;88.12
84835;BME280;75078;42.636;23.198;2024-03-08T03:29:37;92055.53;;;2.49;87.48
84835;BME280;75078;42.636;23.198;2024-03-08T03:32:02;92062.97;;;2.37;86.52
84835;BME280;75078;42.636;23.198;2024-03-08T03:34:29;92063.44;;;2.39;85.90
84835;BME280;75078;42.636;23.198;2024-03-08T03:36:54;92065.63;;;2.32;86.29
84835;BME280;75078;42.636;23.198;2024-03-08T03:39:22;92057.56;;;2.30;85.49
84835;BME280;75078;42.636;23.198;2024-03-08T03:41:48;92069.91;;;2.14;85.33
84835;BME280;75078;42.636;23.198;2024-03-08T03:44:17;92070.97;;;2.22;84.10
84835;BME280;75078;42.636;23.198;2024-03-08T03:46:43;92073.13;;;2.37;85.45
84835;BME280;75078;42.636;23.198;2024-03-08T03:49:11;92066.25;;;2.38;85.27
84835;BME280;75078;42.636;23.198;2024-03-08T03:51:37;92070.16;;;2.35;84.50
84835;BME280;75078;42.636;23.198;2024-03-08T03:54:03;92072.47;;;2.23;85.55
84835;BME280;75078;42.636;23.198;2024-03-08T03:56:29;92078.78;;;2.34;85.21
84835;BME280;75078;42.636;23.198;2024-03-08T03:58:55;92081.19;;;2.31;84.42
84835;BME280;75078;42.636;23.198;2024-03-08T04:01:21;92081.34;;;2.34;85.33
84835;BME280;75078;42.636;23.198;2024-03-08T04:03:46;92083.63;;;2.44;85.14
84835;BME280;75078;42.636;23.198;2024-03-08T04:06:12;92083.00;;;2.39;85.07
84835;BME280;75078;42.636;23.198;2024-03-08T04:08:38;92091.38;;;2.39;85.02
84835;BME280;75078;42.636;23.198;2024-03-08T04:11:03;92096.78;;;2.46;84.70
84835;BME280;75078;42.636;23.198;2024-03-08T04:13:28;92095.84;;;2.42;84.82
84835;BME280;75078;42.636;23.198;2024-03-08T04:15:54;92098.56;;;2.54;84.00
84835;BME280;75078;42.636;23.198;2024-03-08T04:18:19;92091.69;;;2.46;84.07
84835;BME280;75078;42.636;23.198;2024-03-08T04:20:45;92100.03;;;2.47;83.69
84835;BME280;75078;42.636;23.198;2024-03-08T04:23:10;92103.50;;;2.51;83.70
84835;BME280;75078;42.636;23.198;2024-03-08T04:25:36;92107.56;;;2.60;83.54
84835;BME280;75078;42.636;23.198;2024-03-08T04:28:01;92102.66;;;2.64;83.66
84835;BME280;75078;42.636;23.198;2024-03-08T04:30:26;92111.16;;;2.59;82.84
84835;BME280;75078;42.636;23.198;2024-03-08T04:32:53;92113.69;;;2.59;82.17
84835;BME280;75078;42.636;23.198;2024-03-08T04:35:19;92115.91;;;2.52;82.66
84835;BME280;75078;42.636;23.198;2024-03-08T04:37:45;92119.00;;;2.41;82.31
84835;BME280;75078;42.636;23.198;2024-03-08T04:40:11;92121.06;;;2.30;83.28
84835;BME280;75078;42.636;23.198;2024-03-08T04:42:37;92122.09;;;2.29;83.73
84835;BME280;75078;42.636;23.198;2024-03-08T04:45:04;92127.47;;;2.28;83.78
84835;BME280;75078;42.636;23.198;2024-03-08T04:47:30;92125.25;;;2.26;84.12
84835;BME280;75078;42.636;23.198;2024-03-08T04:49:55;92127.59;;;2.23;84.40
84835;BME280;75078;42.636;23.198;2024-03-08T04:52:22;92124.19;;;2.27;84.43
84835;BME280;75078;42.636;23.198;2024-03-08T04:54:47;92122.84;;;2.30;84.78
84835;BME280;75078;42.636;23.198;2024-03-08T04:57:12;92119.75;;;2.41;85.10
84835;BME280;75078;42.636;23.198;2024-03-08T04:59:38;92121.25;;;2.42;85.04
84835;BME280;75078;42.636;23.198;2024-03-08T05:02:03;92120.09;;;2.48;84.63
84835;BME280;75078;42.636;23.198;2024-03-08T05:04:29;92123.84;;;2.51;84.64
84835;BME280;75078;42.636;23.198;2024-03-08T05:06:54;92129.34;;;2.44;85.01
84835;BME280;75078;42.636;23.198;2024-03-08T05:09:20;92121.25;;;2.42;84.25
84835;BME280;75078;42.636;23.198;2024-03-08T05:11:46;92122.88;;;2.38;84.87
84835;BME280;75078;42.636;23.198;2024-03-08T05:14:12;92131.38;;;2.34;84.79
84835;BME280;75078;42.636;23.198;2024-03-08T05:16:42;92128.38;;;2.32;84.77
84835;BME280;75078;42.636;23.198;2024-03-08T05:19:08;92134.91;;;2.24;84.90
84835;BME280;75078;42.636;23.198;2024-03-08T05:21:33;92135.34;;;2.17;84.73
84835;BME280;75078;42.636;23.198;2024-03-08T05:23:58;92138.59;;;2.09;85.52
84835;BME280;75078;42.636;23.198;2024-03-08T05:26:24;92145.00;;;2.07;85.19
84835;BME280;75078;42.636;23.198;2024-03-08T05:28:49;92148.56;;;2.06;85.98
84835;BME280;75078;42.636;23.198;2024-03-08T05:31:21;92160.81;;;2.04;85.84
84835;BME280;75078;42.636;23.198;2024-03-08T05:33:49;92165.22;;;1.90;86.24
84835;BME280;75078;42.636;23.198;2024-03-08T05:36:15;92166.59;;;1.96;86.68
84835;BME280;75078;42.636;23.198;2024-03-08T05:38:44;92169.88;;;1.96;86.87
84835;BME280;75078;42.636;23.198;2024-03-08T05:41:10;92167.34;;;1.96;86.74
84835;BME280;75078;42.636;23.198;2024-03-08T05:43:37;92169.94;;;2.05;86.55
84835;BME280;75078;42.636;23.198;2024-03-08T05:46:02;92178.47;;;1.87;87.27
84835;BME280;75078;42.636;23.198;2024-03-08T05:48:29;92184.75;;;1.89;86.95
84835;BME280;75078;42.636;23.198;2024-03-08T05:50:57;92180.31;;;1.95;87.12
84835;BME280;75078;42.636;23.198;2024-03-08T05:53:22;92180.09;;;2.05;86.69
84835;BME280;75078;42.636;23.198;2024-03-08T05:55:48;92185.16;;;2.05;86.45
84835;BME280;75078;42.636;23.198;2024-03-08T05:58:14;92178.38;;;1.92;87.71
84835;BME280;75078;42.636;23.198;2024-03-08T06:00:39;92184.94;;;1.93;87.08
84835;BME280;75078;42.636;23.198;2024-03-08T06:03:05;92195.69;;;1.90;87.21
84835;BME280;75078;42.636;23.198;2024-03-08T06:05:30;92194.31;;;1.92;86.98
84835;BME280;75078;42.636;23.198;2024-03-08T06:07:56;92198.06;;;1.95;86.89
84835;BME280;75078;42.636;23.198;2024-03-08T06:10:21;92195.06;;;1.93;87.04
84835;BME280;75078;42.636;23.198;2024-03-08T06:12:47;92200.56;;;1.86;86.78
84835;BME280;75078;42.636;23.198;2024-03-08T06:15:12;92199.81;;;1.86;86.82
84835;BME280;75078;42.636;23.198;2024-03-08T06:17:41;92202.13;;;1.74;87.06
84835;BME280;75078;42.636;23.198;2024-03-08T06:20:07;92208.22;;;1.73;87.02
84835;BME280;75078;42.636;23.198;2024-03-08T06:22:38;92209.13;;;1.77;87.24
84835;BME280;75078;42.636;23.198;2024-03-08T06:25:08;92204.88;;;1.86;86.94
84835;BME280;75078;42.636;23.198;2024-03-08T06:27:35;92204.88;;;1.86;87.02
84835;BME280;75078;42.636;23.198;2024-03-08T06:30:01;92209.09;;;1.90;86.63
84835;BME280;75078;42.636;23.198;2024-03-08T06:32:26;92209.69;;;1.87;86.43
84835;BME280;75078;42.636;23.198;2024-03-08T06:34:51;92210.72;;;1.86;86.72
84835;BME280;75078;42.636;23.198;2024-03-08T06:37:17;92211.94;;;1.89;86.66
84835;BME280;75078;42.636;23.198;2024-03-08T06:39:49;92210.91;;;1.90;87.02
84835;BME280;75078;42.636;23.198;2024-03-08T06:42:16;92209.75;;;1.96;86.31
84835;BME280;75078;42.636;23.198;2024-03-08T06:44:41;92212.03;;;1.84;86.43
84835;BME280;75078;42.636;23.198;2024-03-08T06:47:14;92212.78;;;1.84;86.21
84835;BME280;75078;42.636;23.198;2024-03-08T06:49:41;92210.91;;;1.90;87.21
84835;BME280;75078;42.636;23.198;2024-03-08T06:52:06;92221.16;;;1.85;86.76
84835;BME280;75078;42.636;23.198;2024-03-08T06:54:34;92218.03;;;1.88;86.37
84835;BME280;75078;42.636;23.198;2024-03-08T06:57:01;92222.94;;;1.84;87.00
84835;BME280;75078;42.636;23.198;2024-03-08T06:59:28;92226.84;;;1.90;87.39
84835;BME280;75078;42.636;23.198;2024-03-08T07:01:53;92228.19;;;1.88;88.23
84835;BME280;75078;42.636;23.198;2024-03-08T07:04:19;92224.47;;;1.85;88.36
84835;BME280;75078;42.636;23.198;2024-03-08T07:06:47;92223.09;;;1.88;87.73
84835;BME280;75078;42.636;23.198;2024-03-08T07:09:15;92219.38;;;1.85;88.02
84835;BME280;75078;42.636;23.198;2024-03-08T07:11:42;92229.03;;;1.83;87.87
84835;BME280;75078;42.636;23.198;2024-03-08T07:14:07;92231.31;;;1.85;88.10
84835;BME280;75078;42.636;23.198;2024-03-08T07:16:34;92225.47;;;1.84;88.53
84835;BME280;75078;42.636;23.198;2024-03-08T07:19:03;92227.38;;;1.79;88.69
84835;BME280;75078;42.636;23.198;2024-03-08T07:21:30;92230.25;;;1.86;88.67
84835;BME280;75078;42.636;23.198;2024-03-08T07:23:56;92234.22;;;1.92;87.89
84835;BME280;75078;42.636;23.198;2024-03-08T07:26:24;92227.16;;;1.89;88.10
84835;BME280;75078;42.636;23.198;2024-03-08T07:28:49;92236.34;;;1.98;87.84
84835;BME280;75078;42.636;23.198;2024-03-08T07:31:14;92235.78;;;1.88;86.80
84835;BME280;75078;42.636;23.198;2024-03-08T07:33:39;92228.84;;;1.93;87.28
84835;BME280;75078;42.636;23.198;2024-03-08T07:36:05;92234.56;;;1.99;87.91
84835;BME280;75078;42.636;23.198;2024-03-08T07:38:30;92237.78;;;2.13;87.68
84835;BME280;75078;42.636;23.198;2024-03-08T07:40:55;92238.06;;;2.11;88.95
84835;BME280;75078;42.636;23.198;2024-03-08T07:43:22;92236.44;;;2.15;88.50
84835;BME280;75078;42.636;23.198;2024-03-08T07:45:48;92238.56;;;2.22;88.08
84835;BME280;75078;42.636;23.198;2024-03-08T07:48:13;92236.84;;;2.31;87.54
84835;BME280;75078;42.636;23.198;2024-03-08T07:50:39;92241.47;;;2.29;87.71
84835;BME280;75078;42.636;23.198;2024-03-08T07:53:06;92237.91;;;2.30;86.89
84835;BME280;75078;42.636;23.198;2024-03-08T07:55:32;92239.78;;;2.25;87.15
84835;BME280;75078;42.636;23.198;2024-03-08T07:57:58;92233.03;;;2.20;87.18
84835;BME280;75078;42.636;23.198;2024-03-08T08:00:23;92244.41;;;2.23;87.89
84835;BME280;75078;42.636;23.198;2024-03-08T08:02:49;92240.38;;;2.22;87.86
84835;BME280;75078;42.636;23.198;2024-03-08T08:05:15;92240.72;;;2.29;87.31
84835;BME280;75078;42.636;23.198;2024-03-08T08:07:44;92240.09;;;2.23;87.96
84835;BME280;75078;42.636;23.198;2024-03-08T08:10:09;92241.00;;;2.27;88.59
84835;BME280;75078;42.636;23.198;2024-03-08T08:12:41;92241.06;;;2.36;87.38
84835;BME280;75078;42.636;23.198;2024-03-08T08:15:07;92242.59;;;2.45;86.23
84835;BME280;75078;42.636;23.198;2024-03-08T08:17:33;92239.69;;;2.60;86.55
84835;BME280;75078;42.636;23.198;2024-03-08T08:20:00;92245.28;;;2.71;85.43
84835;BME280;75078;42.636;23.198;2024-03-08T08:22:25;92251.78;;;2.85;85.05
84835;BME280;75078;42.636;23.198;2024-03-08T08:24:50;92243.00;;;2.92;84.91
84835;BME280;75078;42.636;23.198;2024-03-08T08:27:17;92249.44;;;2.98;85.24
84835;BME280;75078;42.636;23.198;2024-03-08T08:29:42;92244.94;;;2.95;85.61
84835;BME280;75078;42.636;23.198;2024-03-08T08:32:08;92241.94;;;2.92;85.38
84835;BME280;75078;42.636;23.198;2024-03-08T08:34:35;92241.41;;;3.13;86.46
84835;BME280;75078;42.636;23.198;2024-03-08T08:37:01;92247.03;;;3.49;86.34
84835;BME280;75078;42.636;23.198;2024-03-08T08:39:26;92239.16;;;3.93;85.77
84835;BME280;75078;42.636;23.198;2024-03-08T08:41:52;92235.38;;;4.08;83.35
84835;BME280;75078;42.636;23.198;2024-03-08T08:44:18;92229.06;;;4.14;82.91
84835;BME280;75078;42.636;23.198;2024-03-08T08:46:43;92234.19;;;4.14;81.43
84835;BME280;75078;42.636;23.198;2024-03-08T08:49:09;92235.53;;;3.86;80.99
84835;BME280;75078;42.636;23.198;2024-03-08T08:51:39;92238.53;;;3.79;80.22
84835;BME280;75078;42.636;23.198;2024-03-08T08:54:05;92241.53;;;3.81;82.30
84835;BME280;75078;42.636;23.198;2024-03-08T08:56:31;92232.09;;;3.99;82.04
84835;BME280;75078;42.636;23.198;2024-03-08T08:58:57;92225.94;;;4.08;82.23
84835;BME280;75078;42.636;23.198;2024-03-08T09:01:23;92226.09;;;4.12;81.61
84835;BME280;75078;42.636;23.198;2024-03-08T09:03:48;92229.84;;;4.06;81.40
84835;BME280;75078;42.636;23.198;2024-03-08T09:06:15;92237.78;;;4.21;81.23
84835;BME280;75078;42.636;23.198;2024-03-08T09:08:41;92239.69;;;4.42;79.24
84835;BME280;75078;42.636;23.198;2024-03-08T09:11:07;92230.69;;;4.53;81.17
84835;BME280;75078;42.636;23.198;2024-03-08T09:13:32;92229.25;;;4.81;80.55
84835;BME280;75078;42.636;23.198;2024-03-08T09:15:59;92230.22;;;5.05;78.40
84835;BME280;75078;42.636;23.198;2024-03-08T09:18:25;92224.72;;;4.95;76.55
84835;BME280;75078;42.636;23.198;2024-03-08T09:20:50;92230.59;;;5.16;77.90
84835;BME280;75078;42.636;23.198;2024-03-08T09:23:19;92225.88;;;5.35;76.02
84835;BME280;75078;42.636;23.198;2024-03-08T09:25:44;92231.72;;;5.36;75.17
84835;BME280;75078;42.636;23.198;2024-03-08T09:28:10;92235.97;;;5.23;75.59
84835;BME280;75078;42.636;23.198;2024-03-08T09:30:37;92241.25;;;5.18;75.71
84835;BME280;75078;42.636;23.198;2024-03-08T09:33:03;92239.28;;;5.24;75.82
84835;BME280;75078;42.636;23.198;2024-03-08T09:35:29;92231.81;;;5.19;72.03
84835;BME280;75078;42.636;23.198;2024-03-08T09:37:55;92237.66;;;5.19;75.30
84835;BME280;75078;42.636;23.198;2024-03-08T09:40:21;92237.34;;;5.50;75.94
84835;BME280;75078;42.636;23.198;2024-03-08T09:42:48;92235.50;;;5.79;74.75
84835;BME280;75078;42.636;23.198;2024-03-08T09:45:14;92229.78;;;5.82;71.49
84835;BME280;75078;42.636;23.198;2024-03-08T09:47:42;92231.81;;;5.98;68.76
84835;BME280;75078;42.636;23.198;2024-03-08T09:50:09;92230.41;;;6.21;70.01
84835;BME280;75078;42.636;23.198;2024-03-08T09:52:41;92229.63;;;6.41;70.51
84835;BME280;75078;42.636;23.198;2024-03-08T09:55:09;92233.34;;;6.76;72.28
84835;BME280;75078;42.636;23.198;2024-03-08T09:57:37;92228.72;;;7.02;67.84
84835;BME280;75078;42.636;23.198;2024-03-08T10:00:04;92240.88;;;7.17;67.71
84835;BME280;75078;42.636;23.198;2024-03-08T10:02:45;92235.13;;;7.33;66.20
84835;BME280;75078;42.636;23.198;2024-03-08T10:05:12;92241.22;;;7.28;66.29
84835;BME280;75078;42.636;23.198;2024-03-08T10:07:37;92236.81;;;7.41;65.81
84835;BME280;75078;42.636;23.198;2024-03-08T10:10:03;92232.97;;;7.59;63.86
84835;BME280;75078;42.636;23.198;2024-03-08T10:12:28;92232.75;;;7.64;63.83
84835;BME280;75078;42.636;23.198;2024-03-08T10:14:58;92231.66;;;7.89;65.30
84835;BME280;75078;42.636;23.198;2024-03-08T10:17:23;92231.03;;;7.80;63.50
84835;BME280;75078;42.636;23.198;2024-03-08T10:19:50;92241.31;;;8.08;62.91
84835;BME280;75078;42.636;23.198;2024-03-08T10:22:16;92238.25;;;8.02;61.97
84835;BME280;75078;42.636;23.198;2024-03-08T10:24:41;92238.19;;;8.14;62.24
84835;BME280;75078;42.636;23.198;2024-03-08T10:27:07;92240.66;;;8.11;58.95
84835;BME280;75078;42.636;23.198;2024-03-08T10:29:33;92237.13;;;8.15;62.39
84835;BME280;75078;42.636;23.198;2024-03-08T10:31:58;92231.09;;;8.35;61.88
84835;BME280;75078;42.636;23.198;2024-03-08T10:34:24;92223.06;;;8.64;58.69
84835;BME280;75078;42.636;23.198;2024-03-08T10:36:51;92232.09;;;8.74;58.85
84835;BME280;75078;42.636;23.198;2024-03-08T10:39:24;92231.13;;;8.79;57.99
84835;BME280;75078;42.636;23.198;2024-03-08T10:41:57;92216.66;;;9.02;58.93
84835;BME280;75078;42.636;23.198;2024-03-08T10:50:03;92213.56;;;10.13;56.22
84835;BME280;75078;42.636;23.198;2024-03-08T10:52:33;92200.38;;;10.33;55.42
84835;BME280;75078;42.636;23.198;2024-03-08T10:55:01;92203.34;;;10.35;53.77
84835;BME280;75078;42.636;23.198;2024-03-08T10:57:27;92206.38;;;10.41;50.68
84835;BME280;75078;42.636;23.198;2024-03-08T10:59:52;92204.50;;;10.19;52.84
84835;BME280;75078;42.636;23.198;2024-03-08T11:02:19;92200.56;;;10.25;53.23
84835;BME280;75078;42.636;23.198;2024-03-08T11:04:49;92192.97;;;10.32;52.90
84835;BME280;75078;42.636;23.198;2024-03-08T11:07:15;92185.13;;;10.44;52.42
84835;BME280;75078;42.636;23.198;2024-03-08T11:09:45;92191.97;;;10.78;52.32
84835;BME280;75078;42.636;23.198;2024-03-08T11:12:25;92183.78;;;11.18;53.04
84835;BME280;75078;42.636;23.198;2024-03-08T11:14:59;92181.03;;;11.07;51.72
84835;BME280;75078;42.636;23.198;2024-03-08T11:17:40;92177.13;;;11.39;51.96
84835;BME280;75078;42.636;23.198;2024-03-08T11:20:13;92182.56;;;11.61;52.43
84835;BME280;75078;42.636;23.198;2024-03-08T11:25:34;92174.31;;;11.51;48.76
84835;BME280;75078;42.636;23.198;2024-03-08T11:28:21;92169.09;;;11.22;47.52
84835;BME280;75078;42.636;23.198;2024-03-08T11:33:25;92175.50;;;11.31;51.15
84835;BME280;75078;42.636;23.198;2024-03-08T11:35:51;92169.97;;;11.29;48.82
84835;BME280;75078;42.636;23.198;2024-03-08T11:38:17;92164.25;;;11.17;50.88
84835;BME280;75078;42.636;23.198;2024-03-08T11:40:46;92169.63;;;11.08;49.80
84835;BME280;75078;42.636;23.198;2024-03-08T11:43:15;92173.13;;;11.19;49.19
84835;BME280;75078;42.636;23.198;2024-03-08T11:45:41;92162.72;;;11.38;49.54
84835;BME280;75078;42.636;23.198;2024-03-08T11:48:06;92173.22;;;11.26;50.19
84835;BME280;75078;42.636;23.198;2024-03-08T11:50:32;92164.72;;;11.48;49.97
84835;BME280;75078;42.636;23.198;2024-03-08T11:53:04;92163.50;;;11.16;47.82
84835;BME280;75078;42.636;23.198;2024-03-08T11:55:33;92161.59;;;10.87;49.83
84835;BME280;75078;42.636;23.198;2024-03-08T11:58:04;92160.97;;;10.94;49.78
84835;BME280;75078;42.636;23.198;2024-03-08T12:00:30;92157.50;;;11.09;48.40
84835;BME280;75078;42.636;23.198;2024-03-08T12:03:05;92153.63;;;10.96;48.51
84835;BME280;75078;42.636;23.198;2024-03-08T12:05:31;92153.13;;;11.13;50.06
84835;BME280;75078;42.636;23.198;2024-03-08T12:07:58;92150.03;;;11.26;50.48
84835;BME280;75078;42.636;23.198;2024-03-08T12:10:24;92152.31;;;11.05;48.80
84835;BME280;75078;42.636;23.198;2024-03-08T12:12:52;92158.78;;;10.96;47.98
84835;BME280;75078;42.636;23.198;2024-03-08T12:15:19;92157.00;;;11.00;48.68
84835;BME280;75078;42.636;23.198;2024-03-08T12:17:47;92152.06;;;11.40;48.78
84835;BME280;75078;42.636;23.198;2024-03-08T12:20:20;92148.78;;;11.69;47.96
84835;BME280;75078;42.636;23.198;2024-03-08T12:22:50;92158.41;;;11.69;47.08
84835;BME280;75078;42.636;23.198;2024-03-08T12:25:17;92154.31;;;11.41;47.55
84835;BME280;75078;42.636;23.198;2024-03-08T12:27:44;92141.16;;;11.50;49.34
84835;BME280;75078;42.636;23.198;2024-03-08T12:32:56;92149.94;;;11.45;49.42
84835;BME280;75078;42.636;23.198;2024-03-08T12:35:23;92146.63;;;11.19;49.17
84835;BME280;75078;42.636;23.198;2024-03-08T12:37:53;92142.84;;;10.90;49.62
84835;BME280;75078;42.636;23.198;2024-03-08T12:40:31;92141.22;;;11.27;47.91
84835;BME280;75078;42.636;23.198;2024-03-08T12:43:00;92147.38;;;11.45;47.17
84835;BME280;75078;42.636;23.198;2024-03-08T12:45:26;92138.44;;;11.13;48.71
84835;BME280;75078;42.636;23.198;2024-03-08T12:47:55;92137.03;;;10.93;48.13
84835;BME280;75078;42.636;23.198;2024-03-08T12:50:22;92136.50;;;10.84;49.57
84835;BME280;75078;42.636;23.198;2024-03-08T12:52:48;92129.31;;;10.48;48.42
84835;BME280;75078;42.636;23.198;2024-03-08T12:55:18;92131.97;;;10.32;51.13
84835;BME280;75078;42.636;23.198;2024-03-08T12:57:44;92127.84;;;10.08;50.24
84835;BME280;75078;42.636;23.198;2024-03-08T13:00:10;92133.13;;;9.77;50.93
84835;BME280;75078;42.636;23.198;2024-03-08T13:02:39;92136.69;;;9.73;51.94
84835;BME280;75078;42.636;23.198;2024-03-08T13:05:05;92137.41;;;9.70;52.30
84835;BME280;75078;42.636;23.198;2024-03-08T13:07:31;92131.88;;;9.52;52.10
84835;BME280;75078;42.636;23.198;2024-03-08T13:09:57;92131.81;;;9.49;53.39